Time;durP1;ratioP1;P1;durP2;ratioP2;P2;SDS_P1;SDS_P2;PMS_P1;PMS_P2;Temp;Humidity;BMP_temperature;BMP_pressure;BME280_temperature;BME280_humidity;BME280_pressure;Samples;Min_cycle;Max_cycle;Signal;HPM_P1;HPM_P2
2020/12/23 00:02:00;;;;;;;19.60;11.57;;;;;;;9.14;74.74;98914.45;249978;1132;115639;-65
2020/12/23 00:07:07;;;;;;;19.70;12.40;;;;;;;9.19;74.23;98922.12;250293;1133;121352;-64
2020/12/23 00:12:09;;;;;;;24.30;13.83;;;;;;;9.22;74.84;98912.19;250005;1134;115041;-64
2020/12/23 00:17:18;;;;;;;24.07;14.33;;;;;;;9.23;74.58;98913.03;251803;1133;115483;-62
2020/12/23 00:22:20;;;;;;;22.07;12.40;;;;;;;9.22;74.42;98914.84;251948;1135;115166;-63
2020/12/23 00:27:23;;;;;;;22.47;13.80;;;;;;;9.20;74.23;98930.02;252120;1134;115581;-64
2020/12/23 00:32:29;;;;;;;25.13;15.37;;;;;;;9.22;74.51;98933.42;251336;1135;115596;-65
2020/12/23 00:37:32;;;;;;;28.92;17.35;;;;;;;9.20;74.15;98951.27;252094;1134;115499;-64
2020/12/23 00:42:35;;;;;;;31.03;17.93;;;;;;;9.19;73.97;98951.34;249483;1134;117027;-64
2020/12/23 00:47:38;;;;;;;33.95;18.27;;;;;;;9.18;73.97;98963.77;251158;1134;114916;-63
2020/12/23 00:52:42;;;;;;;29.60;17.00;;;;;;;9.14;73.96;98972.85;251946;1134;115194;-64
2020/12/23 00:57:45;;;;;;;27.37;16.83;;;;;;;9.10;74.30;98989.88;251948;1134;116063;-64
2020/12/23 01:02:51;;;;;;;29.12;17.37;;;;;;;9.13;74.23;98996.81;251468;1133;114687;-63
2020/12/23 01:07:55;;;;;;;29.47;15.67;;;;;;;9.18;74.25;98985.00;251355;1134;116437;-64
2020/12/23 01:12:59;;;;;;;28.30;15.73;;;;;;;9.16;73.73;98970.95;251277;1134;115247;-65
2020/12/23 01:18:03;;;;;;;23.60;14.93;;;;;;;9.15;73.84;98979.02;251888;1134;115836;-63
2020/12/23 01:23:06;;;;;;;23.70;13.60;;;;;;;9.13;73.81;98984.39;251561;1134;115436;-64
2020/12/23 01:28:09;;;;;;;24.03;13.73;;;;;;;9.13;74.19;98975.58;250520;1132;115090;-65
2020/12/23 01:33:13;;;;;;;25.37;13.78;;;;;;;9.14;74.54;98975.50;250096;1134;115454;-65
2020/12/23 01:38:17;;;;;;;25.57;14.70;;;;;;;9.17;74.13;98975.34;252077;1134;115017;-64
2020/12/23 01:43:20;;;;;;;25.97;14.67;;;;;;;9.23;74.02;98968.80;252315;1135;115220;-63
2020/12/23 01:48:28;;;;;;;26.53;15.17;;;;;;;9.21;73.63;98965.39;249999;1132;115296;-64
2020/12/23 01:53:31;;;;;;;27.40;14.70;;;;;;;9.16;73.77;98964.78;250303;1134;115481;-65
2020/12/23 01:58:35;;;;;;;23.75;13.85;;;;;;;9.16;74.24;98970.09;252083;1132;115311;-65
2020/12/23 02:03:38;;;;;;;24.37;12.98;;;;;;;9.15;73.98;98966.59;251466;1134;115358;-64
2020/12/23 02:08:43;;;;;;;24.00;13.40;;;;;;;9.14;74.00;98956.92;249612;1134;114907;-65
2020/12/23 02:13:46;;;;;;;21.30;13.13;;;;;;;9.16;74.02;98962.98;251121;1134;114995;-62
2020/12/23 02:18:50;;;;;;;23.65;13.72;;;;;;;9.17;73.76;98966.48;252099;1134;115981;-63
2020/12/23 02:23:58;;;;;;;23.23;14.40;;;;;;;9.14;73.98;98956.92;250577;1134;114855;-64
2020/12/23 02:29:02;;;;;;;21.20;13.78;;;;;;;9.16;74.11;98960.33;252117;1133;115106;-66
2020/12/23 02:34:08;;;;;;;19.70;11.87;;;;;;;9.19;74.42;98968.12;250953;1134;114929;-66
2020/12/23 02:39:12;;;;;;;22.07;12.93;;;;;;;9.21;74.48;98978.67;251429;1132;115069;-65
2020/12/23 02:44:15;;;;;;;18.57;12.70;;;;;;;9.28;73.98;98972.05;250989;1133;115163;-65
2020/12/23 02:49:18;;;;;;;18.07;11.87;;;;;;;9.24;74.30;98982.00;250936;1134;114911;-64
2020/12/23 02:54:21;;;;;;;23.60;13.53;;;;;;;9.21;73.52;98966.24;250613;1133;115659;-64
2020/12/23 02:59:25;;;;;;;18.17;11.43;;;;;;;9.21;74.13;98946.80;251937;1134;115067;-66
2020/12/23 03:04:28;;;;;;;17.33;11.73;;;;;;;9.20;73.70;98961.89;251947;1133;115101;-64
2020/12/23 03:09:31;;;;;;;18.90;11.10;;;;;;;9.23;74.17;98953.72;249715;1134;115355;-65
2020/12/23 03:14:35;;;;;;;22.10;12.37;;;;;;;9.22;74.04;98941.39;250355;1134;115099;-64
2020/12/23 03:19:39;;;;;;;16.53;11.57;;;;;;;9.24;73.77;98958.10;249613;1133;114939;-66
2020/12/23 03:24:42;;;;;;;;;;;;;;;9.23;74.13;98961.68;249879;1134;115068;-65
2020/12/23 03:29:46;;;;;;;18.13;11.70;;;;;;;9.17;73.92;98967.37;249947;1134;104365;-64
2020/12/23 03:34:50;;;;;;;17.77;11.73;;;;;;;9.15;74.10;98963.94;249961;1134;115397;-65
2020/12/23 03:39:53;;;;;;;19.20;11.73;;;;;;;9.19;74.47;98964.61;248505;1134;115466;-65
2020/12/23 03:44:56;;;;;;;17.20;11.90;;;;;;;9.22;74.01;98978.56;252098;1133;115111;-66
2020/12/23 03:50:00;;;;;;;19.87;12.93;;;;;;;9.25;74.17;98988.16;250474;1133;115507;-65
2020/12/23 03:55:03;;;;;;;20.87;12.47;;;;;;;9.26;74.27;98965.12;250858;1133;116383;-65
2020/12/23 04:00:09;;;;;;;19.87;12.00;;;;;;;9.23;74.09;98942.23;249294;1134;115320;-62
2020/12/23 04:05:15;;;;;;;20.33;12.27;;;;;;;9.20;74.04;98953.03;249547;1134;115406;-63
2020/12/23 04:10:20;;;;;;;20.40;12.10;;;;;;;9.18;74.52;98962.91;250467;1133;115149;-65
2020/12/23 04:15:24;;;;;;;18.23;11.00;;;;;;;9.21;74.54;98970.70;251894;1135;115605;-66
2020/12/23 04:20:27;;;;;;;20.57;11.97;;;;;;;9.26;74.10;98960.66;250327;1134;115183;-66
2020/12/23 04:25:30;;;;;;;16.07;11.43;;;;;;;9.32;74.08;98964.77;250499;1133;115183;-66
2020/12/23 04:30:33;;;;;;;19.30;12.47;;;;;;;9.32;74.19;98964.77;249398;1134;114956;-64
2020/12/23 04:35:37;;;;;;;18.23;11.93;;;;;;;9.31;74.20;98971.03;252107;1134;115306;-66
2020/12/23 04:40:40;;;;;;;18.23;11.15;;;;;;;9.31;73.95;98963.91;251726;1135;115207;-65
2020/12/23 04:45:44;;;;;;;16.83;11.23;;;;;;;9.36;74.30;98959.17;249888;1134;115271;-64
2020/12/23 04:50:53;;;;;;;21.50;11.57;;;;;;;9.39;74.21;98966.12;252196;1134;115348;-64
2020/12/23 04:55:57;;;;;;;17.27;11.67;;;;;;;9.40;74.18;98966.02;251813;1134;115724;-66
2020/12/23 05:00:59;;;;;;;19.87;11.80;;;;;;;9.40;73.64;98959.85;249944;1134;115053;-65
2020/12/23 05:06:09;;;;;;;19.97;12.43;;;;;;;9.41;74.39;98964.24;249318;1133;116108;-65
2020/12/23 05:11:13;;;;;;;15.80;10.60;;;;;;;9.41;74.27;98958.92;250200;1134;115219;-64
2020/12/23 05:16:24;;;;;;;14.78;9.85;;;;;;;9.44;74.08;98964.91;252152;1133;114788;-65
2020/12/23 05:21:28;;;;;;;17.13;10.73;;;;;;;9.49;74.22;98951.35;250699;1135;114819;-64
2020/12/23 05:26:38;;;;;;;17.00;11.33;;;;;;;9.55;74.21;98953.65;251992;1133;115292;-65
2020/12/23 05:31:45;;;;;;;14.87;10.87;;;;;;;9.53;74.33;98955.53;250660;1134;115131;-64
2020/12/23 05:36:50;;;;;;;22.63;10.67;;;;;;;9.47;74.09;98948.77;251985;1133;115278;-65
2020/12/23 05:41:55;;;;;;;21.03;10.17;;;;;;;9.44;73.76;98953.41;251786;1134;114992;-65
2020/12/23 05:47:01;;;;;;;15.70;10.13;;;;;;;9.47;74.07;98956.73;251357;1134;114725;-65
2020/12/23 05:52:05;;;;;;;19.83;10.17;;;;;;;9.50;73.75;98962.83;251838;1134;115378;-66
2020/12/23 05:57:09;;;;;;;17.73;11.27;;;;;;;9.53;73.53;98959.99;250919;1134;116016;-64
2020/12/23 06:02:12;;;;;;;19.40;11.20;;;;;;;9.52;73.80;98945.86;250517;1134;115134;-64
2020/12/23 06:07:31;;;;;;;19.23;10.48;;;;;;;9.51;74.07;98946.81;250867;1134;114913;-61
2020/12/23 06:12:45;;;;;;;19.73;10.37;;;;;;;9.46;73.93;98955.03;250238;1134;115595;-66
2020/12/23 06:17:49;;;;;;;18.23;10.70;;;;;;;9.53;74.05;98949.37;251065;1134;117037;-62
2020/12/23 06:22:55;;;;;;;11.22;7.47;;;;;;;9.53;73.76;98968.81;251378;1134;115155;-66
2020/12/23 06:27:59;;;;;;;;;;;;;;;9.54;73.43;98964.34;251844;1134;115638;-65
2020/12/23 06:33:04;;;;;;;18.53;10.57;;;;;;;9.50;73.69;98955.70;250019;1134;104463;-63
2020/12/23 06:38:22;;;;;;;18.40;11.38;;;;;;;9.48;74.06;98970.91;251292;1134;114929;-63
2020/12/23 06:43:54;;;;;;;15.33;10.23;;;;;;;9.46;73.70;98968.31;251492;1133;115105;-63
2020/12/23 06:49:14;;;;;;;15.93;10.30;;;;;;;9.51;74.13;98975.16;251005;1132;116475;-64
2020/12/23 06:55:06;;;;;;;15.50;10.67;;;;;;;9.53;74.07;98979.44;249701;1133;116361;-64
2020/12/23 07:00:33;;;;;;;20.67;11.50;;;;;;;9.53;74.44;98968.81;249735;1134;116798;-64
2020/12/23 07:05:43;;;;;;;17.50;10.67;;;;;;;9.53;74.12;98982.09;249678;1134;116183;-64
2020/12/23 07:10:53;;;;;;;20.03;11.30;;;;;;;9.58;74.42;98982.70;249487;1134;115926;-64
2020/12/23 07:16:21;;;;;;;20.37;11.00;;;;;;;9.68;74.46;98988.30;250556;1134;115750;-64
2020/12/23 07:21:25;;;;;;;18.63;10.67;;;;;;;9.73;74.10;98985.39;252104;1135;115265;-65
2020/12/23 07:26:27;;;;;;;21.73;11.78;;;;;;;9.77;74.35;98982.44;251996;1132;115940;-66
2020/12/23 07:31:30;;;;;;;23.40;12.40;;;;;;;9.71;74.20;98989.00;252094;1135;116025;-63
2020/12/23 07:36:32;;;;;;;23.97;13.47;;;;;;;9.65;74.20;98991.16;252024;1135;115614;-64
2020/12/23 07:41:35;;;;;;;29.40;13.83;;;;;;;9.65;74.56;98996.48;251973;1135;114762;-63
2020/12/23 07:46:37;;;;;;;23.90;12.90;;;;;;;9.68;74.56;98991.84;251893;1135;115407;-63
2020/12/23 07:51:39;;;;;;;27.07;14.07;;;;;;;9.69;74.05;98990.88;250073;1134;114953;-66
2020/12/23 07:56:42;;;;;;;24.37;13.43;;;;;;;9.71;74.39;98981.03;252182;1135;200949;-66
2020/12/23 08:01:47;;;;;;;25.20;12.87;;;;;;;9.76;74.73;98982.55;252217;1135;115140;-67
2020/12/23 08:06:56;;;;;;;28.77;14.43;;;;;;;9.74;73.85;98989.75;251809;1134;114824;-66
2020/12/23 08:11:59;;;;;;;24.40;12.90;;;;;;;9.75;74.33;98987.02;252041;1135;115306;-66
2020/12/23 08:17:01;;;;;;;19.45;11.97;;;;;;;9.82;74.10;98995.48;252052;1135;114781;-68
2020/12/23 08:22:11;;;;;;;22.83;12.67;;;;;;;9.84;74.22;98988.25;250367;1134;115302;-67
2020/12/23 08:27:13;;;;;;;19.47;12.17;;;;;;;9.86;74.49;98989.03;252260;1142;114681;-66
2020/12/23 08:32:21;;;;;;;22.73;12.50;;;;;;;9.83;74.40;98989.20;252183;1135;115241;-66
2020/12/23 08:37:24;;;;;;;21.33;13.73;;;;;;;9.80;75.02;98992.05;251972;1135;115361;-66
2020/12/23 08:42:26;;;;;;;20.20;11.93;;;;;;;9.78;74.12;98980.64;252048;1135;115491;-66
2020/12/23 08:47:33;;;;;;;19.73;11.93;;;;;;;9.79;74.83;98985.03;252053;1132;115116;-66
2020/12/23 08:52:45;;;;;;;17.43;11.57;;;;;;;9.79;74.18;98999.17;251960;1135;115253;-66
2020/12/23 08:57:52;;;;;;;21.82;12.70;;;;;;;9.79;75.05;99019.58;251830;1136;115302;-66
2020/12/23 09:02:54;;;;;;;19.85;11.65;;;;;;;9.79;74.33;99008.95;252010;1134;115368;-66
2020/12/23 09:08:11;;;;;;;20.20;11.88;;;;;;;9.81;74.33;99001.72;252103;1135;114687;-65
2020/12/23 09:13:13;;;;;;;20.20;11.17;;;;;;;9.83;74.42;98992.72;252029;1135;115159;-67
2020/12/23 09:18:15;;;;;;;16.90;10.83;;;;;;;9.88;74.87;98984.45;252022;1135;115499;-67
2020/12/23 09:23:19;;;;;;;22.00;11.47;;;;;;;9.90;73.83;98977.25;251613;1134;115228;-66
2020/12/23 09:28:26;;;;;;;15.80;10.87;;;;;;;9.94;74.31;98984.09;251947;1135;114918;-66
2020/12/23 09:33:39;;;;;;;18.27;11.15;;;;;;;9.97;74.72;98989.23;252155;1135;115248;-66
2020/12/23 09:38:46;;;;;;;18.12;12.53;;;;;;;9.95;75.05;98977.81;251983;1135;114678;-67
2020/12/23 09:43:48;;;;;;;;;;;;;;;9.89;74.50;98967.58;252045;1133;115222;-65
2020/12/23 09:48:51;;;;;;;21.00;11.73;;;;;;;9.90;74.36;98970.13;251972;1135;102658;-66
2020/12/23 09:53:53;;;;;;;16.63;11.80;;;;;;;9.94;74.71;98958.36;251896;1135;115241;-66
2020/12/23 09:58:55;;;;;;;18.33;12.90;;;;;;;10.02;74.88;98949.94;252056;1134;114733;-66
2020/12/23 10:03:57;;;;;;;22.20;12.47;;;;;;;10.02;74.86;98941.97;252026;1134;115853;-66
2020/12/23 10:09:00;;;;;;;22.60;13.97;;;;;;;10.03;74.56;98934.84;252015;1134;115241;-66
2020/12/23 10:14:03;;;;;;;19.43;12.93;;;;;;;10.05;74.76;98933.77;251899;1134;114884;-66
2020/12/23 10:19:05;;;;;;;18.03;12.63;;;;;;;10.07;74.33;98937.20;252122;1133;115190;-66
2020/12/23 10:24:07;;;;;;;19.15;13.03;;;;;;;10.12;74.81;98935.13;251929;1132;115620;-65
2020/12/23 10:29:10;;;;;;;20.07;13.37;;;;;;;10.13;74.32;98920.88;251861;1133;115326;-66
2020/12/23 10:34:12;;;;;;;18.70;13.93;;;;;;;10.14;74.51;98935.88;251784;1134;115634;-67
2020/12/23 10:39:16;;;;;;;22.63;14.73;;;;;;;10.13;74.71;98928.85;251977;1135;115849;-67
2020/12/23 10:44:19;;;;;;;17.80;13.07;;;;;;;10.14;75.20;98924.38;252065;1132;201665;-66
2020/12/23 10:49:26;;;;;;;18.45;11.75;;;;;;;10.19;75.30;98920.50;250543;1133;115308;-65
2020/12/23 10:54:29;;;;;;;18.87;12.57;;;;;;;10.24;75.21;98929.98;251781;1133;115348;-66
2020/12/23 10:59:31;;;;;;;19.10;12.93;;;;;;;10.22;74.75;98919.43;251498;1134;115437;-65
2020/12/23 11:04:33;;;;;;;18.77;12.63;;;;;;;10.27;75.53;98917.39;251890;1133;115302;-65
2020/12/23 11:09:36;;;;;;;14.70;10.90;;;;;;;10.24;75.16;98906.05;251502;1134;115319;-68
2020/12/23 11:14:38;;;;;;;12.60;9.03;;;;;;;10.26;74.89;98905.05;251852;1134;114928;-67
2020/12/23 11:19:42;;;;;;;9.07;5.93;;;;;;;10.30;75.23;98919.86;251811;1133;115194;-66
2020/12/23 11:24:45;;;;;;;10.67;6.70;;;;;;;10.36;75.87;98921.25;252009;1135;114824;-65
2020/12/23 11:29:47;;;;;;;10.17;7.13;;;;;;;10.41;75.67;98908.53;251859;1135;115089;-66
2020/12/23 11:34:52;;;;;;;10.67;7.50;;;;;;;10.40;75.12;98918.33;252068;1135;114958;-68
2020/12/23 11:39:55;;;;;;;11.80;6.73;;;;;;;10.42;74.53;98912.89;251928;1132;115068;-68
2020/12/23 11:44:57;;;;;;;10.77;7.20;;;;;;;10.41;75.26;98917.36;252026;1135;115200;-69
2020/12/23 11:49:59;;;;;;;11.47;7.77;;;;;;;10.41;74.77;98903.22;252028;1134;114682;-66
2020/12/23 11:55:02;;;;;;;10.93;8.40;;;;;;;10.40;74.74;98901.52;252128;1134;115582;-65
2020/12/23 12:00:07;;;;;;;11.27;8.43;;;;;;;10.38;75.23;98898.94;251975;1134;115097;-66
2020/12/23 12:05:14;;;;;;;13.13;9.00;;;;;;;10.33;75.02;98903.70;252068;1132;114874;-65
2020/12/23 12:10:16;;;;;;;13.30;8.07;;;;;;;10.31;74.62;98904.75;251990;1132;117184;-65
2020/12/23 12:15:19;;;;;;;12.70;8.43;;;;;;;10.33;75.60;98914.34;251890;1135;115061;-62
2020/12/23 12:20:21;;;;;;;13.93;9.07;;;;;;;10.41;75.81;98900.55;251995;1135;115151;-63
2020/12/23 12:25:24;;;;;;;15.30;9.20;;;;;;;10.47;74.65;98899.32;251947;1132;116018;-65
2020/12/23 12:30:26;;;;;;;14.20;9.45;;;;;;;10.49;75.18;98892.08;252000;1134;115156;-66
2020/12/23 12:35:28;;;;;;;16.57;9.83;;;;;;;10.51;75.78;98884.86;250799;1135;114940;-63
2020/12/23 12:40:30;;;;;;;15.40;9.53;;;;;;;10.51;74.91;98884.86;252014;1134;115527;-65
2020/12/23 12:45:33;;;;;;;12.57;9.00;;;;;;;10.51;75.57;98888.37;251010;1135;115341;-66
2020/12/23 12:50:35;;;;;;;15.60;9.57;;;;;;;10.59;74.53;98888.72;251818;1134;115231;-66
2020/12/23 12:55:37;;;;;;;15.18;10.20;;;;;;;10.61;74.95;98888.64;252175;1133;114913;-67
2020/12/23 13:00:39;;;;;;;19.40;11.80;;;;;;;10.65;74.89;98898.97;252013;1135;115291;-64
2020/12/23 13:05:42;;;;;;;14.67;10.23;;;;;;;10.59;74.59;98907.34;252013;1133;115333;-65
2020/12/23 13:10:46;;;;;;;18.77;10.73;;;;;;;10.53;75.17;98910.42;251868;1132;115485;-65
2020/12/23 13:15:48;;;;;;;14.87;9.80;;;;;;;10.50;75.09;98913.28;251888;1133;115469;-65
2020/12/23 13:20:50;;;;;;;13.78;9.70;;;;;;;10.52;75.18;98922.00;251741;1134;115228;-65
2020/12/23 13:25:52;;;;;;;14.50;10.47;;;;;;;10.51;75.34;98914.98;252024;1135;115102;-66
2020/12/23 13:30:56;;;;;;;16.13;10.80;;;;;;;10.53;74.69;98921.07;251716;1135;114796;-64
2020/12/23 13:36:00;;;;;;;17.10;10.70;;;;;;;10.53;74.74;98921.07;251825;1135;115462;-65
2020/12/23 13:41:02;;;;;;;16.85;10.58;;;;;;;10.52;74.95;98913.17;251984;1132;115082;-63
2020/12/23 13:46:06;;;;;;;16.10;10.10;;;;;;;10.53;74.77;98915.75;251995;1134;114952;-63
2020/12/23 13:51:10;;;;;;;14.27;10.07;;;;;;;10.57;74.79;98911.93;251744;1135;115813;-67
2020/12/23 13:56:18;;;;;;;15.40;9.87;;;;;;;10.67;75.31;98922.00;251916;1132;116857;-67
2020/12/23 14:01:20;;;;;;;14.90;10.10;;;;;;;10.64;74.82;98915.91;251728;1132;115071;-66
2020/12/23 14:06:23;;;;;;;13.63;10.43;;;;;;;10.60;74.90;98925.05;251993;1135;115281;-66
2020/12/23 14:11:27;;;;;;;17.60;11.33;;;;;;;10.55;75.32;98915.64;251999;1133;115263;-68
2020/12/23 14:16:29;;;;;;;18.32;11.15;;;;;;;10.54;74.81;98914.78;251982;1136;116144;-67
2020/12/23 14:21:31;;;;;;;17.30;11.37;;;;;;;10.55;75.20;98919.14;251981;1133;114981;-66
2020/12/23 14:26:34;;;;;;;18.20;11.23;;;;;;;10.58;75.19;98916.30;252051;1135;115458;-66
2020/12/23 14:31:40;;;;;;;17.20;11.03;;;;;;;10.56;75.06;98915.55;252007;1134;115459;-67
2020/12/23 14:36:42;;;;;;;15.58;11.12;;;;;;;10.49;74.59;98906.23;251811;1135;116232;-64
2020/12/23 14:41:50;;;;;;;16.17;11.03;;;;;;;10.45;74.65;98910.04;251900;1135;114843;-67
2020/12/23 14:46:54;;;;;;;14.23;10.23;;;;;;;10.42;74.20;98910.23;251872;1135;114937;-65
2020/12/23 14:52:04;;;;;;;15.30;11.10;;;;;;;10.44;74.78;98908.34;252131;1132;115268;-67
2020/12/23 14:57:07;;;;;;;20.50;12.90;;;;;;;10.43;74.67;98898.66;251823;1134;115571;-66
2020/12/23 15:02:13;;;;;;;17.52;11.63;;;;;;;10.44;74.09;98897.70;251867;1135;114932;-67
2020/12/23 15:07:19;;;;;;;16.70;12.07;;;;;;;10.40;74.29;98902.36;251936;1134;116709;-66
2020/12/23 15:12:22;;;;;;;14.75;10.93;;;;;;;10.35;74.74;98914.23;251846;1134;115232;-66
2020/12/23 15:17:24;;;;;;;14.23;10.77;;;;;;;10.32;74.69;98906.45;252014;1133;115413;-66
2020/12/23 15:22:26;;;;;;;16.60;12.23;;;;;;;10.30;74.09;98916.34;251682;1135;115925;-68
2020/12/23 15:27:29;;;;;;;19.17;13.50;;;;;;;10.29;74.19;98906.64;251940;1135;115623;-66
2020/12/23 15:32:31;;;;;;;22.13;15.87;;;;;;;10.25;74.13;98907.75;251853;1134;115134;-66
2020/12/23 15:37:33;;;;;;;22.33;15.13;;;;;;;10.19;74.45;98904.55;251998;1133;115267;-66
2020/12/23 15:42:36;;;;;;;18.47;14.00;;;;;;;10.12;74.53;98903.22;251513;1135;115461;-67
2020/12/23 15:47:38;;;;;;;20.40;15.20;;;;;;;10.09;74.30;98895.44;251267;1134;114951;-67
2020/12/23 15:52:43;;;;;;;24.70;17.00;;;;;;;10.10;74.44;98894.47;248940;1134;115237;-68
2020/12/23 15:57:46;;;;;;;25.32;17.75;;;;;;;10.06;74.35;98886.80;251104;1134;115456;-64
2020/12/23 16:02:48;;;;;;;25.67;18.30;;;;;;;10.00;73.88;98884.52;251300;1133;115729;-63
2020/12/23 16:07:51;;;;;;;29.10;19.27;;;;;;;9.94;74.85;98883.08;250715;1133;115269;-65
2020/12/23 16:12:54;;;;;;;24.50;16.23;;;;;;;9.90;74.23;98878.91;249532;1134;115126;-65
2020/12/23 16:17:59;;;;;;;28.30;17.35;;;;;;;9.89;74.91;98880.72;250901;1134;115572;-65
2020/12/23 16:23:04;;;;;;;25.37;17.07;;;;;;;9.89;75.29;98875.40;249718;1134;115151;-66
2020/12/23 16:28:07;;;;;;;26.87;18.03;;;;;;;9.88;74.94;98870.16;250887;1134;115522;-67
2020/12/23 16:33:11;;;;;;;25.37;18.10;;;;;;;9.87;74.82;98861.34;251696;1133;115006;-66
2020/12/23 16:38:21;;;;;;;25.33;18.23;;;;;;;9.86;74.88;98858.79;248984;1134;115144;-66
2020/12/23 16:43:24;;;;;;;23.27;16.53;;;;;;;9.86;74.85;98858.79;250469;1133;115829;-67
2020/12/23 16:48:27;;;;;;;30.97;18.07;;;;;;;9.90;75.18;98857.64;250460;1133;116016;-64
2020/12/23 16:53:31;;;;;;;38.30;23.10;;;;;;;9.97;75.37;98839.51;248823;1134;115148;-66
2020/12/23 16:58:40;;;;;;;40.65;23.52;;;;;;;9.98;75.15;98835.89;249662;1134;114959;-66
2020/12/23 17:03:44;;;;;;;44.10;23.30;;;;;;;9.96;74.68;98833.34;249919;1134;114905;-68
2020/12/23 17:08:56;;;;;;;53.90;25.90;;;;;;;9.95;75.31;98839.58;250462;1134;116260;-68
2020/12/23 17:13:59;;;;;;;54.60;26.53;;;;;;;9.93;74.81;98838.84;249745;1133;115377;-67
2020/12/23 17:19:07;;;;;;;50.60;25.87;;;;;;;9.90;75.15;98837.23;249085;1133;115371;-67
2020/12/23 17:24:10;;;;;;;62.27;28.33;;;;;;;9.90;75.51;98831.91;251754;1132;115402;-68
2020/12/23 17:29:14;;;;;;;98.07;28.67;;;;;;;9.92;74.70;98821.20;249659;1134;115273;-67
2020/12/23 17:34:16;;;;;;;73.02;30.82;;;;;;;9.90;75.00;98820.43;251801;1134;115162;-68
2020/12/23 17:39:18;;;;;;;75.60;29.93;;;;;;;9.87;75.49;98818.81;251899;1134;117259;-68
2020/12/23 17:44:21;;;;;;;80.63;29.50;;;;;;;9.85;74.77;98814.53;250489;1135;115213;-63
2020/12/23 17:49:24;;;;;;;63.97;28.23;;;;;;;9.85;75.26;98806.56;250468;1134;115131;-66
2020/12/23 17:54:27;;;;;;;64.47;27.90;;;;;;;9.84;75.61;98810.17;250780;1134;115908;-65
2020/12/23 17:59:29;;;;;;;67.87;29.10;;;;;;;9.84;74.91;98807.52;251714;1134;115051;-64
2020/12/23 18:04:31;;;;;;;73.33;28.67;;;;;;;9.84;75.25;98803.05;251872;1134;115401;-65
2020/12/23 18:09:33;;;;;;;60.33;33.47;;;;;;;9.82;75.03;98793.49;251752;1133;115025;-66
2020/12/23 18:14:37;;;;;;;57.63;32.13;;;;;;;9.79;75.40;98793.68;250905;1134;114915;-67
2020/12/23 18:19:41;;;;;;;59.07;33.77;;;;;;;9.78;75.16;98802.58;251752;1135;115246;-67
2020/12/23 18:24:43;;;;;;;64.00;37.07;;;;;;;9.80;75.27;98796.23;251919;1134;115346;-67
2020/12/23 18:29:45;;;;;;;64.67;38.33;;;;;;;9.84;75.39;98797.73;248504;1135;116748;-66
2020/12/23 18:34:48;;;;;;;72.30;42.00;;;;;;;9.82;75.37;98793.49;250810;1134;115300;-64
2020/12/23 18:39:50;;;;;;;70.43;42.97;;;;;;;9.79;75.46;98781.24;251843;1135;114725;-63
2020/12/23 18:44:53;;;;;;;68.77;39.50;;;;;;;9.80;75.08;98792.72;251878;1132;115338;-65
2020/12/23 18:49:57;;;;;;;65.37;39.78;;;;;;;9.77;74.75;98788.44;251377;1132;115138;-66
2020/12/23 18:55:04;;;;;;;;;;;;;;;9.76;74.67;98786.75;252043;1132;114899;-64
2020/12/23 19:00:06;;;;;;;64.43;40.27;;;;;;;9.77;75.54;98776.97;251391;1132;104369;-67
2020/12/23 19:05:09;;;;;;;69.63;41.23;;;;;;;9.71;74.96;98779.08;251789;1136;115440;-68
2020/12/23 19:10:31;;;;;;;71.83;42.33;;;;;;;9.68;75.05;98781.92;251783;1135;115485;-64
2020/12/23 19:15:33;;;;;;;67.63;39.40;;;;;;;9.59;74.38;98765.70;251630;1134;115262;-65
2020/12/23 19:20:37;;;;;;;71.53;41.00;;;;;;;9.55;74.25;98758.87;251790;1135;115346;-64
2020/12/23 19:25:39;;;;;;;73.07;42.15;;;;;;;9.51;74.81;98744.05;251466;1134;115013;-67
2020/12/23 19:30:42;;;;;;;80.70;42.57;;;;;;;9.54;74.61;98731.43;251788;1141;115566;-65
2020/12/23 19:35:45;;;;;;;79.00;41.63;;;;;;;9.56;75.01;98716.26;251834;1135;114892;-65
2020/12/23 19:40:47;;;;;;;64.07;37.87;;;;;;;9.39;73.97;98709.34;250593;1135;115001;-65
2020/12/23 19:45:49;;;;;;;52.27;32.70;;;;;;;9.21;74.35;98692.77;252111;1134;115401;-64
2020/12/23 19:50:51;;;;;;;45.53;30.10;;;;;;;9.14;74.08;98691.44;251097;1134;114955;-66
2020/12/23 19:55:54;;;;;;;44.63;29.40;;;;;;;9.10;74.11;98684.59;250351;1135;115789;-67
2020/12/23 20:00:56;;;;;;;42.87;28.17;;;;;;;9.08;73.88;98690.97;251623;1135;115197;-68
2020/12/23 20:05:58;;;;;;;41.10;27.58;;;;;;;9.02;73.82;98697.50;252023;1132;115785;-68
2020/12/23 20:11:00;;;;;;;37.63;25.97;;;;;;;8.89;73.47;98696.53;250607;1135;115666;-65
2020/12/23 20:16:03;;;;;;;40.93;27.30;;;;;;;8.75;73.58;98684.09;251786;1134;115282;-68
2020/12/23 20:21:05;;;;;;;40.90;26.77;;;;;;;8.66;74.03;98677.56;251635;1132;115275;-67
2020/12/23 20:26:12;;;;;;;39.87;27.07;;;;;;;8.63;73.69;98669.79;248823;1134;115160;-67
2020/12/23 20:31:14;;;;;;;41.00;27.73;;;;;;;8.57;73.96;98659.54;250704;1134;114954;-66
2020/12/23 20:36:17;;;;;;;39.67;25.70;;;;;;;8.50;73.88;98647.59;248574;1134;115369;-64
2020/12/23 20:41:20;;;;;;;41.33;25.97;;;;;;;8.43;73.76;98643.61;252000;1134;115437;-65
2020/12/23 20:46:22;;;;;;;41.60;25.80;;;;;;;8.40;73.99;98636.69;250466;1135;115054;-64
2020/12/23 20:51:24;;;;;;;38.43;24.97;;;;;;;8.33;73.55;98650.37;251813;1132;115457;-66
2020/12/23 20:56:26;;;;;;;35.27;23.00;;;;;;;8.24;73.54;98651.75;249834;1134;114959;-67
2020/12/23 21:01:29;;;;;;;30.67;20.77;;;;;;;8.18;73.66;98639.70;251828;1133;115491;-67
2020/12/23 21:06:31;;;;;;;37.43;21.93;;;;;;;8.12;73.58;98631.25;251830;1135;115442;-65
2020/12/23 21:17:46;;;;;;;45.03;25.83;;;;;;;7.99;73.48;98609.94;251027;1134;115272;-67
2020/12/23 21:23:11;;;;;;;48.27;26.80;;;;;;;7.91;73.41;98612.16;250358;1133;115637;-67
2020/12/23 21:28:21;;;;;;;50.23;27.73;;;;;;;7.82;73.39;98589.73;250664;1134;115243;-66
2020/12/23 21:33:51;;;;;;;47.93;26.87;;;;;;;7.74;73.64;98582.20;250472;1134;116478;-66
2020/12/23 21:39:39;;;;;;;46.80;26.83;;;;;;;7.74;73.86;98571.61;250130;1135;115469;-66
2020/12/23 21:45:08;;;;;;;46.00;27.47;;;;;;;7.75;73.78;98557.44;249426;1135;116210;-65
2020/12/23 21:50:35;;;;;;;43.53;25.87;;;;;;;7.72;73.45;98554.97;249794;1135;115217;-65
2020/12/23 21:56:19;;;;;;;41.50;25.30;;;;;;;7.67;73.38;98535.83;250021;1134;116670;-66
2020/12/23 22:01:40;;;;;;;38.90;23.50;;;;;;;7.61;73.46;98535.33;251468;1135;117258;-64
2020/12/23 22:06:42;;;;;;;38.80;23.53;;;;;;;7.54;72.67;98522.48;251846;1133;116133;-64
2020/12/23 22:11:45;;;;;;;40.73;23.13;;;;;;;7.51;72.95;98513.86;251998;1134;114981;-64
2020/12/23 22:16:47;;;;;;;42.27;23.22;;;;;;;7.53;73.30;98502.21;251808;1135;115161;-64
2020/12/23 22:21:49;;;;;;;37.83;24.00;;;;;;;7.56;73.95;98480.00;251922;1139;115413;-66
2020/12/23 22:26:52;;;;;;;37.47;21.67;;;;;;;7.60;73.53;98478.88;251830;1135;115416;-66
2020/12/23 22:31:54;;;;;;;38.07;22.33;;;;;;;7.59;73.02;98469.23;251735;1135;115447;-66
2020/12/23 22:36:57;;;;;;;38.08;22.52;;;;;;;7.56;73.14;98464.12;252014;1134;114645;-67
2020/12/23 22:41:59;;;;;;;37.03;21.50;;;;;;;7.52;73.24;98460.80;251858;1134;115797;-64
2020/12/23 22:47:03;;;;;;;36.17;20.60;;;;;;;7.50;73.10;98453.88;251869;1134;115044;-64
2020/12/23 22:52:06;;;;;;;35.03;19.95;;;;;;;7.52;72.90;98444.06;251907;1135;115075;-65
2020/12/23 22:57:09;;;;;;;33.27;20.70;;;;;;;7.57;73.36;98440.22;252120;1133;115183;-64
2020/12/23 23:02:16;;;;;;;34.53;20.60;;;;;;;7.61;73.58;98443.53;251540;1132;115402;-66
2020/12/23 23:07:44;;;;;;;36.87;20.07;;;;;;;7.58;73.25;98441.91;250449;1134;118009;-66
2020/12/23 23:13:01;;;;;;;31.27;19.47;;;;;;;7.55;73.51;98438.59;250563;1134;116505;-67